createdAt,value
2018-12-03T00:00:41.242Z,1007.58
2018-12-03T00:01:41.445Z,1007.61
2018-12-03T00:02:41.382Z,1007.62
2018-12-03T00:03:41.694Z,1007.61
2018-12-03T00:04:41.527Z,1007.63
2018-12-03T00:05:41.696Z,1007.67
2018-12-03T00:06:41.693Z,1007.63
2018-12-03T00:07:41.253Z,1007.67
2018-12-03T00:08:41.460Z,1007.61
2018-12-03T00:09:41.814Z,1007.53
2018-12-03T00:10:41.445Z,1007.58
2018-12-03T00:11:41.216Z,1007.55
2018-12-03T00:12:41.424Z,1007.6
2018-12-03T00:13:41.515Z,1007.67
2018-12-03T00:14:41.155Z,1007.64
2018-12-03T00:15:41.421Z,1007.59
2018-12-03T00:16:41.380Z,1007.59
2018-12-03T00:17:41.800Z,1007.62
2018-12-03T00:18:41.548Z,1007.62
2018-12-03T00:19:41.441Z,1007.67
2018-12-03T00:20:41.234Z,1007.65
2018-12-03T00:21:41.304Z,1007.64
2018-12-03T00:22:41.150Z,1007.63
2018-12-03T00:23:41.640Z,1007.54
2018-12-03T00:24:41.357Z,1007.56
2018-12-03T00:25:41.212Z,1007.63
2018-12-03T00:26:41.374Z,1007.63
2018-12-03T00:27:41.236Z,1007.67
2018-12-03T00:28:41.385Z,1007.64
2018-12-03T00:29:41.472Z,1007.67
2018-12-03T00:30:41.366Z,1007.64
2018-12-03T00:31:41.320Z,1007.68
2018-12-03T00:32:41.262Z,1007.72
2018-12-03T00:33:41.648Z,1007.72
2018-12-03T00:34:41.186Z,1007.7
2018-12-03T00:35:41.622Z,1007.67
2018-12-03T00:36:42.026Z,1007.71
2018-12-03T00:37:41.932Z,1007.73
2018-12-03T00:38:42.292Z,1007.73
2018-12-03T00:39:41.365Z,1007.71
2018-12-03T00:40:41.376Z,1007.72
2018-12-03T00:41:41.263Z,1007.71
2018-12-03T00:42:41.446Z,1007.81
2018-12-03T00:43:41.188Z,1007.76
2018-12-03T00:44:41.328Z,1007.82
2018-12-03T00:45:41.373Z,1007.82
2018-12-03T00:46:41.522Z,1007.81
2018-12-03T00:47:41.806Z,1007.86
2018-12-03T00:48:41.289Z,1007.88
2018-12-03T00:49:41.328Z,1007.94
2018-12-03T00:50:41.202Z,1007.88
2018-12-03T00:51:41.213Z,1007.91
2018-12-03T00:52:41.398Z,1007.92
2018-12-03T00:53:41.259Z,1007.83
2018-12-03T00:54:41.370Z,1007.87
2018-12-03T00:55:41.339Z,1007.83
2018-12-03T00:56:41.685Z,1007.86
2018-12-03T00:57:41.470Z,1007.86
2018-12-03T00:58:41.691Z,1007.9
2018-12-03T00:59:41.350Z,1007.9
2018-12-03T01:00:41.252Z,1007.93
2018-12-03T01:01:41.784Z,1007.87
2018-12-03T01:02:41.661Z,1007.96
2018-12-03T01:03:41.612Z,1008.04
2018-12-03T01:04:41.160Z,1008.02
2018-12-03T01:05:41.712Z,1008.02
2018-12-03T01:06:41.543Z,1008.03
2018-12-03T01:07:41.238Z,1008.01
2018-12-03T01:08:41.892Z,1008.03
2018-12-03T01:09:41.979Z,1008.08
2018-12-03T01:10:41.344Z,1008.14
2018-12-03T01:11:41.379Z,1008.15
2018-12-03T01:12:41.722Z,1008.12
2018-12-03T01:13:41.696Z,1008.13
2018-12-03T01:14:41.167Z,1008.17
2018-12-03T01:15:41.459Z,1008.17
2018-12-03T01:16:41.299Z,1008.19
2018-12-03T01:17:41.355Z,1008.19
2018-12-03T01:18:41.338Z,1008.18
2018-12-03T01:19:41.339Z,1008.16
2018-12-03T01:20:41.283Z,1008.16
2018-12-03T01:21:41.324Z,1008.14
2018-12-03T01:22:41.176Z,1008.1
2018-12-03T01:23:41.133Z,1008.11
2018-12-03T01:24:41.370Z,1008.14
2018-12-03T01:25:41.230Z,1008.15
2018-12-03T01:26:41.402Z,1008.14
2018-12-03T01:27:41.258Z,1008.15
2018-12-03T01:28:41.801Z,1008.14
2018-12-03T01:29:41.157Z,1008.18
2018-12-03T01:30:41.335Z,1008.19
2018-12-03T01:31:41.581Z,1008.18
2018-12-03T01:32:41.266Z,1008.18
2018-12-03T01:33:41.899Z,1008.17
2018-12-03T01:34:41.259Z,1008.16
2018-12-03T01:35:41.290Z,1008.15
2018-12-03T01:36:41.170Z,1008.1
2018-12-03T01:37:41.416Z,1008.09
2018-12-03T01:38:41.672Z,1008.09
2018-12-03T01:39:41.270Z,1008.08
2018-12-03T01:40:41.747Z,1008.07
2018-12-03T01:41:41.157Z,1008.07
2018-12-03T01:42:41.349Z,1008.03
2018-12-03T01:43:41.188Z,1008.02
2018-12-03T01:44:41.300Z,1008.08
2018-12-03T01:45:41.650Z,1008.11
2018-12-03T01:46:41.416Z,1008.11
2018-12-03T01:47:41.428Z,1008.09
2018-12-03T01:48:41.392Z,1008.12
2018-12-03T01:49:41.798Z,1008.14
2018-12-03T01:50:41.531Z,1008.12
2018-12-03T01:51:41.579Z,1008.09
2018-12-03T01:52:41.702Z,1008.04
2018-12-03T01:53:41.455Z,1008.02
2018-12-03T01:54:41.232Z,1008.04
2018-12-03T01:55:41.484Z,1008.04
2018-12-03T01:56:41.486Z,1007.95
2018-12-03T01:57:41.697Z,1008.03
2018-12-03T01:58:41.405Z,1007.93
2018-12-03T01:59:42.162Z,1007.96
2018-12-03T02:00:41.866Z,1007.95
2018-12-03T02:01:41.308Z,1007.96
2018-12-03T02:02:42.202Z,1007.92
2018-12-03T02:03:41.790Z,1007.93
2018-12-03T02:04:41.611Z,1007.92
2018-12-03T02:05:41.417Z,1007.9
2018-12-03T02:06:41.359Z,1007.89
2018-12-03T02:07:41.554Z,1007.92
2018-12-03T02:08:41.334Z,1007.88
2018-12-03T02:09:41.667Z,1007.93
2018-12-03T02:10:41.690Z,1007.94
2018-12-03T02:11:41.585Z,1007.93
2018-12-03T02:12:41.499Z,1007.97
2018-12-03T02:13:41.278Z,1007.97
2018-12-03T02:14:41.634Z,1007.99
2018-12-03T02:15:41.477Z,1007.99
2018-12-03T02:16:41.365Z,1007.95
2018-12-03T02:17:41.145Z,1007.98
2018-12-03T02:18:41.557Z,1007.95
2018-12-03T02:19:41.383Z,1007.97
2018-12-03T02:20:41.242Z,1007.97
2018-12-03T02:21:41.376Z,1008.04
2018-12-03T02:22:41.242Z,1008.03
2018-12-03T02:23:41.316Z,1008.01
2018-12-03T02:24:41.146Z,1007.97
2018-12-03T02:25:41.369Z,1007.99
2018-12-03T02:26:41.384Z,1007.96
2018-12-03T02:27:41.284Z,1008.02
2018-12-03T02:28:41.716Z,1007.97
2018-12-03T02:29:41.170Z,1008.04
2018-12-03T02:30:41.493Z,1007.98
2018-12-03T02:31:41.546Z,1007.99
2018-12-03T02:32:41.310Z,1007.95
2018-12-03T02:33:41.228Z,1007.98
2018-12-03T02:34:41.366Z,1008
2018-12-03T02:35:41.182Z,1008.01
2018-12-03T02:36:41.265Z,1008
2018-12-03T02:37:41.754Z,1007.94
2018-12-03T02:38:41.213Z,1007.94
2018-12-03T02:39:41.690Z,1007.99
2018-12-03T02:40:41.243Z,1007.95
2018-12-03T02:41:41.280Z,1008
2018-12-03T02:42:41.270Z,1008.02
2018-12-03T02:43:41.193Z,1008
2018-12-03T02:44:42.139Z,1008.03
2018-12-03T02:45:41.227Z,1007.98
2018-12-03T02:46:41.658Z,1008.03
2018-12-03T02:47:41.682Z,1008.02
2018-12-03T02:48:41.860Z,1008.01
2018-12-03T02:49:41.475Z,1008.02
2018-12-03T02:50:41.400Z,1008.01
2018-12-03T02:51:41.152Z,1008.01
2018-12-03T02:52:41.338Z,1008
2018-12-03T02:53:41.330Z,1008.04
2018-12-03T02:54:41.128Z,1008.04
2018-12-03T02:55:41.343Z,1007.98
2018-12-03T02:56:41.204Z,1008.01
2018-12-03T02:57:41.362Z,1008.01
2018-12-03T02:58:41.197Z,1008
2018-12-03T02:59:41.305Z,1008.03
2018-12-03T03:00:41.319Z,1008.02
2018-12-03T03:01:41.216Z,1008.07
2018-12-03T03:02:41.354Z,1008.03
2018-12-03T03:03:41.557Z,1008.02
2018-12-03T03:04:41.347Z,1008.06
2018-12-03T03:05:41.245Z,1007.96
2018-12-03T03:06:41.323Z,1007.95
2018-12-03T03:07:41.373Z,1008
2018-12-03T03:08:41.141Z,1007.99
2018-12-03T03:09:41.370Z,1007.99
2018-12-03T03:10:41.302Z,1007.94
2018-12-03T03:11:42.625Z,1007.95
2018-12-03T03:12:41.291Z,1007.96
2018-12-03T03:13:41.270Z,1007.96
2018-12-03T03:14:41.356Z,1007.92
2018-12-03T03:15:41.306Z,1007.94
2018-12-03T03:16:41.624Z,1007.92
2018-12-03T03:17:42.011Z,1007.93
2018-12-03T03:18:41.399Z,1007.94
2018-12-03T03:19:41.313Z,1007.98
2018-12-03T03:20:41.580Z,1007.96
2018-12-03T03:21:41.258Z,1007.92
2018-12-03T03:22:41.166Z,1007.9
2018-12-03T03:23:41.743Z,1007.91
2018-12-03T03:24:41.214Z,1007.87
2018-12-03T03:25:41.451Z,1007.95
2018-12-03T03:26:41.420Z,1007.84
2018-12-03T03:27:41.358Z,1007.94
2018-12-03T03:28:41.244Z,1007.96
2018-12-03T03:29:41.661Z,1007.96
2018-12-03T03:30:41.761Z,1007.94
2018-12-03T03:31:41.092Z,1007.91
2018-12-03T03:32:41.825Z,1007.92
2018-12-03T03:33:41.194Z,1008
2018-12-03T03:34:41.238Z,1007.9
2018-12-03T03:35:41.587Z,1007.93
2018-12-03T03:36:41.577Z,1007.95
2018-12-03T03:37:41.716Z,1007.93
2018-12-03T03:38:41.691Z,1007.93
2018-12-03T03:39:41.334Z,1007.94
2018-12-03T03:40:41.417Z,1007.99
2018-12-03T03:41:41.336Z,1008.01
2018-12-03T03:42:41.139Z,1008.04
2018-12-03T03:43:41.216Z,1007.99
2018-12-03T03:44:41.313Z,1008.01
2018-12-03T03:45:41.330Z,1007.98
2018-12-03T03:46:41.292Z,1008.02
2018-12-03T03:47:41.215Z,1008.07
2018-12-03T03:48:41.343Z,1008.06
2018-12-03T03:49:42.011Z,1008.02
2018-12-03T03:50:41.688Z,1008
2018-12-03T03:51:41.118Z,1007.95
2018-12-03T03:52:41.589Z,1007.96
2018-12-03T03:53:41.374Z,1007.96
2018-12-03T03:54:41.218Z,1007.96
2018-12-03T03:55:41.418Z,1007.91
2018-12-03T03:56:41.255Z,1007.91
2018-12-03T03:57:41.329Z,1008.02
2018-12-03T03:58:41.452Z,1008
2018-12-03T03:59:41.319Z,1008.07
2018-12-03T04:00:41.536Z,1008.03
2018-12-03T04:01:41.644Z,1007.99
2018-12-03T04:02:41.529Z,1007.94
2018-12-03T04:03:41.896Z,1007.98
2018-12-03T04:04:41.374Z,1007.97
2018-12-03T04:05:41.487Z,1007.98
2018-12-03T04:06:41.304Z,1007.92
2018-12-03T04:07:41.133Z,1007.86
2018-12-03T04:08:41.198Z,1007.89
2018-12-03T04:09:41.097Z,1007.86
2018-12-03T04:10:41.675Z,1007.83
2018-12-03T04:11:41.307Z,1007.85
2018-12-03T04:12:41.662Z,1007.86
2018-12-03T04:13:41.316Z,1007.83
2018-12-03T04:14:41.435Z,1007.88
2018-12-03T04:15:41.387Z,1007.86
2018-12-03T04:16:41.640Z,1007.88
2018-12-03T04:17:41.310Z,1007.8
2018-12-03T04:18:41.456Z,1007.75
2018-12-03T04:19:41.585Z,1007.66
2018-12-03T04:20:41.773Z,1007.67
2018-12-03T04:21:41.449Z,1007.69
2018-12-03T04:22:41.249Z,1007.72
2018-12-03T04:23:41.242Z,1007.73
2018-12-03T04:24:41.488Z,1007.66
2018-12-03T04:25:41.340Z,1007.68
2018-12-03T04:26:41.071Z,1007.73
2018-12-03T04:27:41.483Z,1007.7
2018-12-03T04:28:41.532Z,1007.72
2018-12-03T04:29:41.714Z,1007.74
2018-12-03T04:30:41.156Z,1007.74
2018-12-03T04:31:41.257Z,1007.69
2018-12-03T04:32:41.179Z,1007.65
2018-12-03T04:33:41.556Z,1007.67
2018-12-03T04:34:41.141Z,1007.68
2018-12-03T04:35:41.062Z,1007.69
2018-12-03T04:36:41.397Z,1007.61
2018-12-03T04:37:41.178Z,1007.63
2018-12-03T04:38:41.303Z,1007.64
2018-12-03T04:39:41.249Z,1007.72
2018-12-03T04:40:41.178Z,1007.69
2018-12-03T04:41:41.081Z,1007.69
2018-12-03T04:42:41.288Z,1007.78
2018-12-03T04:43:41.284Z,1007.86
2018-12-03T04:44:41.120Z,1007.86
2018-12-03T04:45:41.795Z,1007.95
2018-12-03T04:46:41.133Z,1008.03
2018-12-03T04:47:41.244Z,1007.96
2018-12-03T04:48:41.028Z,1007.95
2018-12-03T04:49:41.571Z,1007.97
2018-12-03T04:50:41.397Z,1007.96
2018-12-03T04:51:41.229Z,1008.01
2018-12-03T04:52:41.709Z,1007.97
2018-12-03T04:53:42.260Z,1007.97
2018-12-03T04:54:41.358Z,1007.91
2018-12-03T04:55:41.276Z,1007.97
2018-12-03T04:56:41.265Z,1007.95
2018-12-03T04:57:41.879Z,1007.97
2018-12-03T04:58:41.999Z,1007.98
2018-12-03T04:59:41.680Z,1007.97
2018-12-03T05:00:41.355Z,1008.01
2018-12-03T05:01:41.514Z,1007.99
2018-12-03T05:02:41.489Z,1008
2018-12-03T05:03:41.689Z,1008
2018-12-03T05:04:41.561Z,1008
2018-12-03T05:05:41.522Z,1007.96
2018-12-03T05:06:41.615Z,1007.96
2018-12-03T05:07:41.312Z,1007.95
2018-12-03T05:08:41.402Z,1007.97
2018-12-03T05:09:41.183Z,1008.02
2018-12-03T05:10:41.271Z,1008.07
2018-12-03T05:11:41.202Z,1008.04
2018-12-03T05:12:41.508Z,1008.06
2018-12-03T05:13:41.330Z,1008.08
2018-12-03T05:14:41.327Z,1008.1
2018-12-03T05:15:41.473Z,1008.13
2018-12-03T05:16:41.107Z,1008.13
2018-12-03T05:17:41.288Z,1008.19
2018-12-03T05:18:41.092Z,1008.19
2018-12-03T05:19:41.251Z,1008.21
2018-12-03T05:20:41.637Z,1008.22
2018-12-03T05:21:41.399Z,1008.18
2018-12-03T05:22:41.272Z,1008.23
2018-12-03T05:23:41.122Z,1008.24
2018-12-03T05:24:41.610Z,1008.16
2018-12-03T05:25:42.133Z,1008.24
2018-12-03T05:26:41.585Z,1008.14
2018-12-03T05:27:41.347Z,1008.14
2018-12-03T05:28:41.233Z,1008.16
2018-12-03T05:29:41.269Z,1008.08
2018-12-03T05:30:41.358Z,1008.15
2018-12-03T05:31:42.005Z,1008.22
2018-12-03T05:32:41.568Z,1008.22
2018-12-03T05:33:41.358Z,1008.29
2018-12-03T05:34:41.049Z,1008.3
2018-12-03T05:35:41.234Z,1008.27
2018-12-03T05:36:42.057Z,1008.3
2018-12-03T05:37:41.740Z,1008.36
2018-12-03T05:38:41.285Z,1008.33
2018-12-03T05:39:41.110Z,1008.33
2018-12-03T05:40:41.340Z,1008.29
2018-12-03T05:41:41.219Z,1008.34
2018-12-03T05:42:41.208Z,1008.32
2018-12-03T05:43:41.402Z,1008.38
2018-12-03T05:44:41.163Z,1008.45
2018-12-03T05:45:41.689Z,1008.4
2018-12-03T05:46:41.122Z,1008.43
2018-12-03T05:47:41.207Z,1008.44
2018-12-03T05:48:41.427Z,1008.41
2018-12-03T05:49:41.639Z,1008.39
2018-12-03T05:50:41.172Z,1008.4
2018-12-03T05:51:41.646Z,1008.46
2018-12-03T05:52:41.383Z,1008.46
2018-12-03T05:53:41.349Z,1008.47
2018-12-03T05:54:41.409Z,1008.46
2018-12-03T05:55:41.194Z,1008.5
2018-12-03T05:56:41.561Z,1008.46
2018-12-03T05:57:41.465Z,1008.47
2018-12-03T05:58:41.181Z,1008.49
2018-12-03T05:59:41.153Z,1008.47
2018-12-03T06:00:41.392Z,1008.45
2018-12-03T06:01:41.110Z,1008.52
2018-12-03T06:02:41.303Z,1008.45
2018-12-03T06:03:41.259Z,1008.52
2018-12-03T06:04:41.432Z,1008.45
2018-12-03T06:05:41.232Z,1008.44
2018-12-03T06:06:41.063Z,1008.42
2018-12-03T06:07:41.178Z,1008.41
2018-12-03T06:08:41.242Z,1008.43
2018-12-03T06:09:41.129Z,1008.41
2018-12-03T06:10:41.281Z,1008.42
2018-12-03T06:11:41.625Z,1008.39
2018-12-03T06:12:41.324Z,1008.38
2018-12-03T06:13:41.213Z,1008.4
2018-12-03T06:14:41.499Z,1008.46
2018-12-03T06:15:41.163Z,1008.48
2018-12-03T06:16:41.127Z,1008.52
2018-12-03T06:17:41.049Z,1008.56
2018-12-03T06:18:41.227Z,1008.5
2018-12-03T06:19:41.369Z,1008.47
2018-12-03T06:20:41.081Z,1008.42
2018-12-03T06:21:41.327Z,1008.45
2018-12-03T06:22:41.089Z,1008.46
2018-12-03T06:23:41.152Z,1008.38
2018-12-03T06:24:41.092Z,1008.41
2018-12-03T06:25:41.042Z,1008.37
2018-12-03T06:26:41.258Z,1008.37
2018-12-03T06:27:41.146Z,1008.35
2018-12-03T06:28:41.262Z,1008.39
2018-12-03T06:29:41.854Z,1008.3
2018-12-03T06:30:41.330Z,1008.35
2018-12-03T06:31:41.046Z,1008.29
2018-12-03T06:32:41.670Z,1008.29
2018-12-03T06:33:41.380Z,1008.27
2018-12-03T06:34:41.140Z,1008.3
2018-12-03T06:35:41.301Z,1008.36
2018-12-03T06:36:41.107Z,1008.29
2018-12-03T06:37:41.301Z,1008.3
2018-12-03T06:38:41.183Z,1008.41
2018-12-03T06:39:41.211Z,1008.32
2018-12-03T06:40:41.380Z,1008.3
2018-12-03T06:41:41.604Z,1008.26
2018-12-03T06:42:41.693Z,1008.22
2018-12-03T06:43:41.841Z,1008.23
2018-12-03T06:44:41.225Z,1008.28
2018-12-03T06:45:41.201Z,1008.27
2018-12-03T06:46:41.234Z,1008.25
2018-12-03T06:47:41.042Z,1008.28
2018-12-03T06:48:41.540Z,1008.24
2018-12-03T06:49:41.376Z,1008.26
2018-12-03T06:50:41.442Z,1008.27
2018-12-03T06:51:41.550Z,1008.29
2018-12-03T06:52:41.332Z,1008.32
2018-12-03T06:53:41.702Z,1008.29
2018-12-03T06:54:42.812Z,1008.3
2018-12-03T06:55:41.255Z,1008.26
2018-12-03T06:56:41.344Z,1008.22
2018-12-03T06:57:41.493Z,1008.24
2018-12-03T06:58:41.221Z,1008.18
2018-12-03T06:59:41.143Z,1008.27
2018-12-03T07:00:41.645Z,1008.39
2018-12-03T07:01:41.412Z,1008.36
2018-12-03T07:02:41.310Z,1008.33
2018-12-03T07:03:41.767Z,1008.31
2018-12-03T07:04:41.159Z,1008.36
2018-12-03T07:05:41.227Z,1008.36
2018-12-03T07:06:41.455Z,1008.33
2018-12-03T07:07:41.443Z,1008.38
2018-12-03T07:08:42.023Z,1008.39
2018-12-03T07:09:41.159Z,1008.44
2018-12-03T07:10:41.012Z,1008.5
2018-12-03T07:11:41.263Z,1008.5
2018-12-03T07:12:41.700Z,1008.52
2018-12-03T07:13:41.398Z,1008.5
2018-12-03T07:14:41.335Z,1008.55
2018-12-03T07:15:41.250Z,1008.51
2018-12-03T07:16:41.211Z,1008.57
2018-12-03T07:17:41.092Z,1008.6
2018-12-03T07:18:42.101Z,1008.59
2018-12-03T07:19:41.078Z,1008.6
2018-12-03T07:20:41.220Z,1008.6
2018-12-03T07:21:41.889Z,1008.6
2018-12-03T07:22:41.338Z,1008.58
2018-12-03T07:23:41.653Z,1008.54
2018-12-03T07:24:41.181Z,1008.51
2018-12-03T07:25:41.251Z,1008.48
2018-12-03T07:26:41.404Z,1008.47
2018-12-03T07:27:41.189Z,1008.45
2018-12-03T07:28:41.492Z,1008.4
2018-12-03T07:29:41.159Z,1008.48
2018-12-03T07:30:41.222Z,1008.52
2018-12-03T07:31:41.516Z,1008.46
2018-12-03T07:32:41.298Z,1008.51
2018-12-03T07:33:41.719Z,1008.5
2018-12-03T07:34:41.066Z,1008.52
2018-12-03T07:35:41.278Z,1008.52
2018-12-03T07:36:41.191Z,1008.5
2018-12-03T07:37:41.701Z,1008.58
2018-12-03T07:38:41.982Z,1008.58
2018-12-03T07:39:41.190Z,1008.59
2018-12-03T07:40:41.135Z,1008.64
2018-12-03T07:41:41.152Z,1008.63
2018-12-03T07:42:41.209Z,1008.68
2018-12-03T07:43:41.140Z,1008.69
2018-12-03T07:44:41.239Z,1008.69
2018-12-03T07:45:41.102Z,1008.76
2018-12-03T07:46:41.640Z,1008.73
2018-12-03T07:47:41.517Z,1008.75
2018-12-03T07:48:41.263Z,1008.8
2018-12-03T07:49:40.963Z,1008.77
2018-12-03T07:50:41.205Z,1008.82
2018-12-03T07:51:41.039Z,1008.81
2018-12-03T07:52:41.196Z,1008.84
2018-12-03T07:53:41.260Z,1008.8
2018-12-03T07:54:41.157Z,1008.8
2018-12-03T07:55:41.266Z,1008.85
2018-12-03T07:56:41.057Z,1008.86
2018-12-03T07:57:41.183Z,1008.83
2018-12-03T07:58:41.066Z,1008.81
2018-12-03T07:59:41.086Z,1008.85
2018-12-03T08:00:40.987Z,1008.82
2018-12-03T08:01:41.156Z,1008.83
2018-12-03T08:02:41.245Z,1008.8
2018-12-03T08:03:41.127Z,1008.78
2018-12-03T08:04:41.160Z,1008.7
2018-12-03T08:05:41.121Z,1008.72
2018-12-03T08:06:41.197Z,1008.72
2018-12-03T08:07:41.479Z,1008.76
2018-12-03T08:08:41.185Z,1008.66
2018-12-03T08:09:40.988Z,1008.73
2018-12-03T08:10:41.330Z,1008.71
2018-12-03T08:11:41.223Z,1008.7
2018-12-03T08:12:41.513Z,1008.72
2018-12-03T08:13:41.112Z,1008.71
2018-12-03T08:14:41.032Z,1008.74
2018-12-03T08:15:41.346Z,1008.8
2018-12-03T08:16:41.013Z,1008.75
2018-12-03T08:17:41.122Z,1008.8
2018-12-03T08:18:41.091Z,1008.84
2018-12-03T08:19:41.127Z,1008.85
2018-12-03T08:20:41.116Z,1008.85
2018-12-03T08:21:41.030Z,1008.85
2018-12-03T08:22:41.481Z,1008.84
2018-12-03T08:23:41.289Z,1008.84
2018-12-03T08:24:41.307Z,1008.82
2018-12-03T08:25:41.631Z,1008.74
2018-12-03T08:26:41.044Z,1008.75
2018-12-03T08:27:40.967Z,1008.8
2018-12-03T08:28:41.934Z,1008.78
2018-12-03T08:29:41.612Z,1008.77
2018-12-03T08:30:41.014Z,1008.81
2018-12-03T08:31:41.459Z,1008.8
2018-12-03T08:32:41.435Z,1008.84
2018-12-03T08:33:41.340Z,1008.88
2018-12-03T08:34:41.306Z,1008.79
2018-12-03T08:35:41.399Z,1008.8
2018-12-03T08:36:40.997Z,1008.85
2018-12-03T08:37:41.090Z,1008.81
2018-12-03T08:38:41.133Z,1008.85
2018-12-03T08:39:41.019Z,1008.85
2018-12-03T08:40:41.203Z,1008.77
2018-12-03T08:41:41.101Z,1008.88
2018-12-03T08:42:41.596Z,1008.87
2018-12-03T08:43:41.253Z,1008.78
2018-12-03T08:44:41.451Z,1008.82
2018-12-03T08:45:41.043Z,1008.8
2018-12-03T08:46:41.128Z,1008.84
2018-12-03T08:47:41.179Z,1008.82
2018-12-03T08:48:41.473Z,1008.86
2018-12-03T08:49:41.362Z,1008.85
2018-12-03T08:50:41.231Z,1008.79
2018-12-03T08:51:41.594Z,1008.82
2018-12-03T08:52:41.302Z,1008.67
2018-12-03T08:53:41.221Z,1008.6
2018-12-03T08:54:41.204Z,1008.58
2018-12-03T08:55:41.079Z,1008.62
2018-12-03T08:56:41.092Z,1008.65
2018-12-03T08:57:41.338Z,1008.65
2018-12-03T08:58:41.459Z,1008.6
2018-12-03T08:59:41.639Z,1008.64
2018-12-03T09:00:41.049Z,1008.66
2018-12-03T09:01:41.466Z,1008.71
2018-12-03T09:02:41.078Z,1008.67
2018-12-03T09:03:41.592Z,1008.67
2018-12-03T09:04:41.463Z,1008.79
2018-12-03T09:05:41.286Z,1008.82
2018-12-03T09:06:41.053Z,1008.7
2018-12-03T09:07:41.803Z,1008.66
2018-12-03T09:08:41.217Z,1008.73
2018-12-03T09:09:41.214Z,1008.77
2018-12-03T09:10:41.276Z,1008.92
2018-12-03T09:11:41.176Z,1008.99
2018-12-03T09:12:41.203Z,1008.96
2018-12-03T09:13:41.923Z,1008.96
2018-12-03T09:14:41.190Z,1009.05
2018-12-03T09:15:41.719Z,1009.07
2018-12-03T09:16:41.067Z,1009.04
2018-12-03T09:17:41.695Z,1009.05
2018-12-03T09:18:41.080Z,1009.02
2018-12-03T09:19:41.263Z,1009.08
2018-12-03T09:20:41.186Z,1009.04
2018-12-03T09:21:41.123Z,1009.02
2018-12-03T09:22:41.288Z,1009.11
2018-12-03T09:23:41.155Z,1009.12
2018-12-03T09:24:41.109Z,1009.09
2018-12-03T09:25:41.428Z,1009.1
2018-12-03T09:26:41.722Z,1009.11
2018-12-03T09:27:41.224Z,1009.08
2018-12-03T09:28:41.084Z,1009.04
2018-12-03T09:29:41.640Z,1009.06
2018-12-03T09:30:41.007Z,1009.09
2018-12-03T09:31:41.133Z,1009.21
2018-12-03T09:32:41.169Z,1009.31
2018-12-03T09:33:41.160Z,1009.38
2018-12-03T09:34:41.225Z,1009.4
2018-12-03T09:35:41.097Z,1009.37
2018-12-03T09:36:41.472Z,1009.43
2018-12-03T09:37:41.100Z,1009.41
2018-12-03T09:38:41.296Z,1009.43
2018-12-03T09:39:41.341Z,1009.42
2018-12-03T09:40:41.497Z,1009.38
2018-12-03T09:41:40.999Z,1009.35
2018-12-03T09:42:41.073Z,1009.41
2018-12-03T09:43:41.228Z,1009.32
2018-12-03T09:44:41.183Z,1009.33
2018-12-03T09:45:41.586Z,1009.3
2018-12-03T09:46:41.441Z,1009.25
2018-12-03T09:47:41.497Z,1009.33
2018-12-03T09:48:42.125Z,1009.24
2018-12-03T09:49:41.217Z,1009.22
2018-12-03T09:50:40.940Z,1009.16
2018-12-03T09:51:41.718Z,1009.19
2018-12-03T09:52:41.249Z,1009.14
2018-12-03T09:53:41.872Z,1009.12
2018-12-03T09:54:41.602Z,1009.13
2018-12-03T09:55:41.114Z,1009.15
2018-12-03T09:56:41.118Z,1009.28
2018-12-03T09:57:41.078Z,1009.29
2018-12-03T09:58:41.131Z,1009.22
2018-12-03T09:59:41.352Z,1009.09
2018-12-03T10:00:40.996Z,1009.09
2018-12-03T10:01:41.213Z,1009.05
2018-12-03T10:02:41.531Z,1009.12
2018-12-03T10:03:41.106Z,1009.15
2018-12-03T10:04:41.520Z,1009.13
2018-12-03T10:05:41.825Z,1009.07
2018-12-03T10:06:41.366Z,1009.05
2018-12-03T10:07:40.906Z,1009.01
2018-12-03T10:08:41.491Z,1008.91
2018-12-03T10:09:41.479Z,1008.82
2018-12-03T10:10:41.439Z,1008.78
2018-12-03T10:11:40.970Z,1008.77
2018-12-03T10:12:41.408Z,1008.79
2018-12-03T10:13:41.246Z,1008.74
2018-12-03T10:14:41.023Z,1008.78
2018-12-03T10:15:41.324Z,1008.73
2018-12-03T10:16:41.030Z,1008.76
2018-12-03T10:17:41.246Z,1008.81
2018-12-03T10:18:41.003Z,1008.78
2018-12-03T10:19:41.711Z,1008.8
2018-12-03T10:20:42.435Z,1008.84
2018-12-03T10:21:41.152Z,1008.84
2018-12-03T10:22:41.256Z,1008.86
2018-12-03T10:23:41.293Z,1008.84
2018-12-03T10:24:41.113Z,1008.82
2018-12-03T10:25:41.296Z,1008.78
2018-12-03T10:26:41.088Z,1008.84
2018-12-03T10:27:41.122Z,1008.87
2018-12-03T10:28:41.005Z,1008.85
2018-12-03T10:29:41.474Z,1008.86
2018-12-03T10:30:41.206Z,1008.87
2018-12-03T10:31:41.214Z,1008.86
2018-12-03T10:32:41.184Z,1008.81
2018-12-03T10:33:41.193Z,1008.77
2018-12-03T10:34:41.137Z,1008.67
2018-12-03T10:35:41.332Z,1008.69
2018-12-03T10:36:41.326Z,1008.66
2018-12-03T10:37:41.233Z,1008.68
2018-12-03T10:38:41.213Z,1008.65
2018-12-03T10:39:41.138Z,1008.6
2018-12-03T10:40:41.141Z,1008.54
2018-12-03T10:41:41.146Z,1008.49
2018-12-03T10:42:40.995Z,1008.47
2018-12-03T10:43:41.190Z,1008.52
2018-12-03T10:44:41.074Z,1008.52
2018-12-03T10:45:41.472Z,1008.45
2018-12-03T10:46:41.384Z,1008.48
2018-12-03T10:47:41.302Z,1008.43
2018-12-03T10:48:41.049Z,1008.38
2018-12-03T10:49:41.164Z,1008.45
2018-12-03T10:50:41.173Z,1008.43
2018-12-03T10:51:41.359Z,1008.37
2018-12-03T10:52:40.995Z,1008.4
2018-12-03T10:53:41.239Z,1008.38
2018-12-03T10:54:41.200Z,1008.37
2018-12-03T10:55:41.182Z,1008.27
2018-12-03T10:56:41.056Z,1008.25
2018-12-03T10:57:41.464Z,1008.21
2018-12-03T10:58:41.052Z,1008.2
2018-12-03T10:59:41.594Z,1008.17
2018-12-03T11:00:40.981Z,1008.12
2018-12-03T11:01:41.192Z,1008.11
2018-12-03T11:02:40.938Z,1008.14
2018-12-03T11:03:41.040Z,1008.14
2018-12-03T11:04:41.138Z,1008.19
2018-12-03T11:05:41.046Z,1008.25
2018-12-03T11:06:41.316Z,1008.32
2018-12-03T11:07:41.049Z,1008.35
2018-12-03T11:08:41.194Z,1008.32
2018-12-03T11:09:41.016Z,1008.33
2018-12-03T11:10:40.909Z,1008.3
2018-12-03T11:11:41.042Z,1008.29
2018-12-03T11:12:41.062Z,1008.24
2018-12-03T11:13:41.115Z,1008.24
2018-12-03T11:14:41.062Z,1008.21
2018-12-03T11:15:41.180Z,1008.2
2018-12-03T11:16:40.930Z,1008.18
2018-12-03T11:17:41.173Z,1008.15
2018-12-03T11:18:40.995Z,1008.16
2018-12-03T11:19:40.876Z,1008.16
2018-12-03T11:20:41.104Z,1008.19
2018-12-03T11:21:41.048Z,1008.17
2018-12-03T11:22:41.123Z,1008.16
2018-12-03T11:23:41.262Z,1008.17
2018-12-03T11:24:41.384Z,1008.21
2018-12-03T11:25:41.192Z,1008.17
2018-12-03T11:26:41.119Z,1008.2
2018-12-03T11:27:41.574Z,1008.17
2018-12-03T11:28:41.165Z,1008.15
2018-12-03T11:29:41.121Z,1008.2
2018-12-03T11:30:41.097Z,1008.17
2018-12-03T11:31:41.086Z,1008.13
2018-12-03T11:32:41.060Z,1008.21
2018-12-03T11:33:41.039Z,1008.21
2018-12-03T11:34:41.076Z,1008.28
2018-12-03T11:35:41.907Z,1008.15
2018-12-03T11:36:41.123Z,1008.16
2018-12-03T11:37:41.099Z,1008.15
2018-12-03T11:38:41.120Z,1008.09
2018-12-03T11:39:41.034Z,1008.01
2018-12-03T11:40:41.112Z,1008.1
2018-12-03T11:41:41.094Z,1008.15
2018-12-03T11:42:41.264Z,1008.13
2018-12-03T11:43:41.228Z,1008.05
2018-12-03T11:44:41.159Z,1008.15
2018-12-03T11:45:41.458Z,1008.13
2018-12-03T11:46:41.343Z,1008.12
2018-12-03T11:47:41.162Z,1008.12
2018-12-03T11:48:41.331Z,1008.16
2018-12-03T11:49:41.220Z,1008.08
2018-12-03T11:50:41.141Z,1008.02
2018-12-03T11:51:41.448Z,1007.99
2018-12-03T11:52:41.168Z,1007.99
2018-12-03T11:53:41.198Z,1008
2018-12-03T11:54:41.003Z,1007.94
2018-12-03T11:55:40.970Z,1007.99
2018-12-03T11:56:41.307Z,1007.99
2018-12-03T11:57:41.141Z,1008.08
2018-12-03T11:58:41.004Z,1008.06
2018-12-03T11:59:41.157Z,1008.11
2018-12-03T12:00:41.210Z,1008.08
2018-12-03T12:01:41.508Z,1008.12
2018-12-03T12:02:41.106Z,1008.05
2018-12-03T12:03:43.156Z,1008.04
2018-12-03T12:04:40.805Z,1008.05
2018-12-03T12:05:40.986Z,1008
2018-12-03T12:06:41.019Z,1007.99
2018-12-03T12:07:42.632Z,1007.95
2018-12-03T12:08:41.059Z,1007.96
2018-12-03T12:09:41.264Z,1007.89